Time;durP1;ratioP1;P1;durP2;ratioP2;P2;SDS_P1;SDS_P2;PMS_P1;PMS_P2;Temp;Humidity;BMP_temperature;BMP_pressure;BME280_temperature;BME280_humidity;BME280_pressure;Samples;Min_cycle;Max_cycle;Signal;HPM_P1;HPM_P2
2021/11/15 00:00:24;;;;;;;;;;;;;;;;;;352747;28;884;-78
2021/11/15 00:00:36;;;;;;;;;;;;;;;;;;352722;28;837;-78
2021/11/15 00:00:49;;;;;;;;;;;;;;;;;;352719;28;876;-78
2021/11/15 00:01:02;;;;;;;;;;;;;;;;;;352718;28;817;-78
2021/11/15 00:01:15;;;;;;;;;;;;;;;;;;352740;28;825;-78
2021/11/15 00:01:44;;;;;;;;;;;;;;;;;;352720;28;584;-77
2021/11/15 00:01:55;;;;;;;;;;;;;;;;;;352669;28;856;-78
2021/11/15 00:02:09;;;;;;;;;;;;;;;;;;352584;28;765;-77
2021/11/15 00:02:21;;;;;;;;;;;;;;;;;;352733;28;975;-77
2021/11/15 00:02:31;;;;;;;;;;;;;;;;;;352708;28;840;-77
2021/11/15 00:03:36;;;;;;;;;;;;;;;;;;352714;28;797;-78
2021/11/15 00:03:48;;;;;;;;;;;;;;;;;;352756;28;849;-78
2021/11/15 00:03:58;;;;;;;;;;;;;;;;;;352706;28;845;-78
2021/11/15 00:04:53;;;;;;;;;;;;;;;;;;351268;28;860;-78
2021/11/15 00:05:04;;;;;;;;;;;;;;;;;;351171;28;967;-77
2021/11/15 00:05:14;;;;;;;;;;;;;;;;;;351250;28;821;-78
2021/11/15 00:05:25;;;;;;;;;;;;;;;;;;351190;28;915;-78
2021/11/15 00:06:01;;;;;;;;;;;;;;;;;;349924;28;734;-78
2021/11/15 00:06:38;;;;;;;;;;;;;;;;;;351258;28;927;-78
2021/11/15 00:06:49;;;;;;;;;;;;;;;;;;351208;28;971;-78
2021/11/15 00:07:00;;;;;;;;;;;;;;;;;;351231;28;836;-78
2021/11/15 00:07:11;;;;;;;;;;;;;;;;;;349838;28;1151;-78
2021/11/15 00:07:21;;;;;;;;;;;;;;;;;;349836;28;888;-77
2021/11/15 00:07:32;;;;;;;;;;;;;;;;;;348334;28;1459;-77
2021/11/15 00:07:42;;;;;;;;;;;;;;;;;;348374;28;924;-78
2021/11/15 00:08:18;;;;;;;;;;;;;;;;;;349841;28;1019;-78
2021/11/15 00:08:29;;;;;;;;;;;;;;;;;;349854;28;1008;-78
2021/11/15 00:09:08;;;;;;;;;;;;;;;;;;349842;28;995;-78
2021/11/15 00:09:34;;;;;;;;;;;;;;;;;;349851;28;782;-78
2021/11/15 00:09:45;;;;;;;;;;;;;;;;;;351170;28;924;-78
2021/11/15 00:09:55;;;;;;;;;;;;;;;;;;351209;28;805;-78
2021/11/15 00:10:07;;;;;;;;;;;;;;;;;;351203;28;1043;-78
2021/11/15 00:10:17;;;;;;;;;;;;;;;;;;351197;28;883;-78
2021/11/15 00:10:30;;;;;;;;;;;;;;;;;;352658;28;944;-78
2021/11/15 00:10:41;;;;;;;;;;;;;;;;;;351198;28;924;-78
2021/11/15 00:10:51;;;;;;;;;;;;;;;;;;351179;28;761;-78
2021/11/15 00:11:02;;;;;;;;;;;;;;;;;;351073;28;1029;-77
2021/11/15 00:11:13;;;;;;;;;;;;;;;;;;351201;28;979;-77
2021/11/15 00:11:25;;;;;;;;;;;;;;;;;;351200;28;1015;-77
2021/11/15 00:11:36;;;;;;;;;;;;;;;;;;351237;28;903;-78
2021/11/15 00:11:46;;;;;;;;;;;;;;;;;;351200;28;971;-78
2021/11/15 00:11:56;;;;;;;;;;;;;;;;;;351195;28;932;-78
2021/11/15 00:12:07;;;;;;;;;;;;;;;;;;351185;28;963;-78
2021/11/15 00:12:18;;;;;;;;;;;;;;;;;;351239;28;923;-78
2021/11/15 00:12:29;;;;;;;;;;;;;;;;;;351207;28;975;-78
2021/11/15 00:12:39;;;;;;;;;;;;;;;;;;352215;28;1441;-78
2021/11/15 00:12:53;;;;;;;;;;;;;;;;;;352674;28;940;-78
2021/11/15 00:13:06;;;;;;;;;;;;;;;;;;352607;28;896;-78
2021/11/15 00:13:17;;;;;;;;;;;;;;;;;;351172;28;1015;-78
2021/11/15 00:13:27;;;;;;;;;;;;;;;;;;351226;28;983;-78
2021/11/15 00:13:38;;;;;;;;;;;;;;;;;;351225;28;742;-78
2021/11/15 00:13:48;;;;;;;;;;;;;;;;;;351233;28;888;-78
2021/11/15 00:13:58;;;;;;;;;;;;;;;;;;349760;28;821;-78
2021/11/15 00:14:12;;;;;;;;;;;;;;;;;;349820;28;967;-77
2021/11/15 00:14:25;;;;;;;;;;;;;;;;;;348382;28;1306;-77
2021/11/15 00:14:51;;;;;;;;;;;;;;;;;;348305;28;1280;-78
2021/11/15 00:15:02;;;;;;;;;;;;;;;;;;348403;28;802;-78
2021/11/15 00:15:12;;;;;;;;;;;;;;;;;;348953;28;976;-78
2021/11/15 00:15:23;;;;;;;;;;;;;;;;;;349735;28;885;-78
2021/11/15 00:15:34;;;;;;;;;;;;;;;;;;349812;28;793;-78
2021/11/15 00:15:44;;;;;;;;;;;;;;;;;;349801;28;979;-78
2021/11/15 00:16:10;;;;;;;;;;;;;;;;;;350527;28;884;-78
2021/11/15 00:16:20;;;;;;;;;;;;;;;;;;351158;28;928;-78
2021/11/15 00:16:31;;;;;;;;;;;;;;;;;;351761;28;924;-77
2021/11/15 00:16:42;;;;;;;;;;;;;;;;;;352664;28;781;-78
2021/11/15 00:16:52;;;;;;;;;;;;;;;;;;352646;28;830;-78
2021/11/15 00:17:04;;;;;;;;;;;;;;;;;;352720;28;797;-78
2021/11/15 00:17:14;;;;;;;;;;;;;;;;;;352705;28;899;-78
2021/11/15 00:17:25;;;;;;;;;;;;;;;;;;351106;28;920;-77
2021/11/15 00:17:35;;;;;;;;;;;;;;;;;;351120;28;832;-78
2021/11/15 00:17:55;;;;;;;;;;;;;;;;;;351204;28;904;-78
2021/11/15 00:18:06;;;;;;;;;;;;;;;;;;351248;28;825;-78
2021/11/15 00:18:17;;;;;;;;;;;;;;;;;;351166;28;939;-78
2021/11/15 00:18:27;;;;;;;;;;;;;;;;;;351194;28;1047;-78
2021/11/15 00:18:39;;;;;;;;;;;;;;;;;;351169;28;915;-78
2021/11/15 00:18:49;;;;;;;;;;;;;;;;;;349760;28;1379;-78
2021/11/15 00:19:26;;;;;;;;;;;;;;;;;;351186;28;983;-78
2021/11/15 00:19:37;;;;;;;;;;;;;;;;;;351215;28;900;-78
2021/11/15 00:19:47;;;;;;;;;;;;;;;;;;350995;28;852;-77
2021/11/15 00:19:58;;;;;;;;;;;;;;;;;;349647;28;1162;-77
2021/11/15 00:20:09;;;;;;;;;;;;;;;;;;349852;28;984;-77
2021/11/15 00:20:19;;;;;;;;;;;;;;;;;;348363;28;924;-78
2021/11/15 00:20:29;;;;;;;;;;;;;;;;;;348438;28;1039;-78
2021/11/15 00:20:56;;;;;;;;;;;;;;;;;;348427;28;829;-78
2021/11/15 00:21:06;;;;;;;;;;;;;;;;;;349787;28;999;-78
2021/11/15 00:21:16;;;;;;;;;;;;;;;;;;349807;28;778;-78
2021/11/15 00:21:27;;;;;;;;;;;;;;;;;;349776;28;880;-78
2021/11/15 00:21:52;;;;;;;;;;;;;;;;;;349799;28;936;-78
2021/11/15 00:22:04;;;;;;;;;;;;;;;;;;351088;28;904;-78
2021/11/15 00:22:14;;;;;;;;;;;;;;;;;;351814;28;916;-78
2021/11/15 00:22:25;;;;;;;;;;;;;;;;;;352642;28;916;-77
2021/11/15 00:22:35;;;;;;;;;;;;;;;;;;352653;28;869;-78
2021/11/15 00:22:45;;;;;;;;;;;;;;;;;;352780;28;777;-78
2021/11/15 00:22:56;;;;;;;;;;;;;;;;;;352678;28;871;-78
2021/11/15 00:23:06;;;;;;;;;;;;;;;;;;351190;28;1015;-78
2021/11/15 00:23:17;;;;;;;;;;;;;;;;;;351302;28;829;-78
2021/11/15 00:23:27;;;;;;;;;;;;;;;;;;351086;28;1008;-78
2021/11/15 00:23:38;;;;;;;;;;;;;;;;;;349862;28;798;-77
2021/11/15 00:24:00;;;;;;;;;;;;;;;;;;348410;28;896;-78
2021/11/15 00:24:10;;;;;;;;;;;;;;;;;;348448;28;833;-78
2021/11/15 00:24:21;;;;;;;;;;;;;;;;;;348336;28;843;-78
2021/11/15 00:24:31;;;;;;;;;;;;;;;;;;348362;28;993;-78
2021/11/15 00:24:42;;;;;;;;;;;;;;;;;;348451;28;983;-78
2021/11/15 00:24:52;;;;;;;;;;;;;;;;;;348232;28;845;-78
2021/11/15 00:25:04;;;;;;;;;;;;;;;;;;349147;28;905;-78
2021/11/15 00:25:15;;;;;;;;;;;;;;;;;;350082;28;975;-78
2021/11/15 00:25:25;;;;;;;;;;;;;;;;;;350107;28;1059;-78
2021/11/15 00:25:36;;;;;;;;;;;;;;;;;;351140;28;793;-78
2021/11/15 00:25:46;;;;;;;;;;;;;;;;;;351470;28;1047;-77
2021/11/15 00:25:57;;;;;;;;;;;;;;;;;;351445;28;1009;-78
2021/11/15 00:26:33;;;;;;;;;;;;;;;;;;351420;28;853;-78
2021/11/15 00:26:43;;;;;;;;;;;;;;;;;;351452;28;959;-78
2021/11/15 00:26:54;;;;;;;;;;;;;;;;;;351506;28;1003;-78
2021/11/15 00:27:04;;;;;;;;;;;;;;;;;;351442;28;944;-78
2021/11/15 00:27:15;;;;;;;;;;;;;;;;;;351546;28;793;-77
2021/11/15 00:27:25;;;;;;;;;;;;;;;;;;351453;28;964;-77
2021/11/15 00:27:35;;;;;;;;;;;;;;;;;;351465;28;1027;-78
2021/11/15 00:27:46;;;;;;;;;;;;;;;;;;351510;28;908;-78
2021/11/15 00:27:57;;;;;;;;;;;;;;;;;;351467;28;869;-78
2021/11/15 00:28:07;;;;;;;;;;;;;;;;;;351377;28;1128;-78
2021/11/15 00:28:18;;;;;;;;;;;;;;;;;;352920;28;865;-78
2021/11/15 00:28:28;;;;;;;;;;;;;;;;;;352998;28;836;-78
2021/11/15 00:28:38;;;;;;;;;;;;;;;;;;352831;28;920;-78
2021/11/15 00:28:49;;;;;;;;;;;;;;;;;;352851;28;1042;-78
2021/11/15 00:29:00;;;;;;;;;;;;;;;;;;351376;28;1374;-78
2021/11/15 00:29:10;;;;;;;;;;;;;;;;;;351494;28;865;-78
2021/11/15 00:29:20;;;;;;;;;;;;;;;;;;351454;28;1024;-78
2021/11/15 00:29:31;;;;;;;;;;;;;;;;;;351470;28;734;-78
2021/11/15 00:29:41;;;;;;;;;;;;;;;;;;351487;28;924;-78
2021/11/15 00:29:52;;;;;;;;;;;;;;;;;;351349;28;913;-78
2021/11/15 00:30:07;;;;;;;;;;;;;;;;;;349971;28;975;-78
2021/11/15 00:30:18;;;;;;;;;;;;;;;;;;350105;28;909;-78
2021/11/15 00:30:28;;;;;;;;;;;;;;;;;;350151;28;861;-78
2021/11/15 00:30:38;;;;;;;;;;;;;;;;;;350095;28;876;-78
2021/11/15 00:30:49;;;;;;;;;;;;;;;;;;350099;28;960;-78
2021/11/15 00:30:59;;;;;;;;;;;;;;;;;;351259;28;872;-78
2021/11/15 00:31:10;;;;;;;;;;;;;;;;;;351515;28;896;-78
2021/11/15 00:31:22;;;;;;;;;;;;;;;;;;351538;28;797;-78
2021/11/15 00:31:32;;;;;;;;;;;;;;;;;;351482;28;924;-78
2021/11/15 00:31:44;;;;;;;;;;;;;;;;;;351541;28;820;-78
2021/11/15 00:31:55;;;;;;;;;;;;;;;;;;351549;28;931;-78
2021/11/15 00:32:05;;;;;;;;;;;;;;;;;;353021;28;840;-78
2021/11/15 00:32:16;;;;;;;;;;;;;;;;;;352880;28;972;-78
2021/11/15 00:32:27;;;;;;;;;;;;;;;;;;352960;28;964;-78
2021/11/15 00:32:38;;;;;;;;;;;;;;;;;;352997;28;991;-78
2021/11/15 00:32:57;;;;;;;;;;;;;;;;;;353003;28;844;-78
2021/11/15 00:33:08;;;;;;;;;;;;;;;;;;352875;28;837;-78
2021/11/15 00:33:37;;;;;;;;;;;;;;;;;;352993;28;579;-78
2021/11/15 00:33:47;;;;;;;;;;;;;;;;;;352905;28;916;-78
2021/11/15 00:33:57;;;;;;;;;;;;;;;;;;352977;28;798;-78
2021/11/15 00:34:08;;;;;;;;;;;;;;;;;;352956;28;849;-78
2021/11/15 00:34:19;;;;;;;;;;;;;;;;;;352991;28;793;-78
2021/11/15 00:34:32;;;;;;;;;;;;;;;;;;352952;28;820;-78
2021/11/15 00:34:42;;;;;;;;;;;;;;;;;;353006;28;805;-78
2021/11/15 00:34:53;;;;;;;;;;;;;;;;;;352741;28;1283;-78
2021/11/15 00:35:05;;;;;;;;;;;;;;;;;;352836;28;895;-78
2021/11/15 00:35:15;;;;;;;;;;;;;;;;;;353006;28;750;-78
2021/11/15 00:35:26;;;;;;;;;;;;;;;;;;352840;28;959;-78
2021/11/15 00:35:36;;;;;;;;;;;;;;;;;;353001;28;1171;-78
2021/11/15 00:35:47;;;;;;;;;;;;;;;;;;352918;28;968;-78
2021/11/15 00:35:57;;;;;;;;;;;;;;;;;;352924;28;1035;-78
2021/11/15 00:36:08;;;;;;;;;;;;;;;;;;353003;28;915;-78
2021/11/15 00:36:19;;;;;;;;;;;;;;;;;;352968;28;897;-78
2021/11/15 00:36:29;;;;;;;;;;;;;;;;;;352967;28;1003;-77
2021/11/15 00:36:39;;;;;;;;;;;;;;;;;;351378;28;1309;-78
2021/11/15 00:36:50;;;;;;;;;;;;;;;;;;351379;28;1890;-78
2021/11/15 00:37:39;;;;;;;;;;;;;;;;;;350104;28;833;-78
2021/11/15 00:37:49;;;;;;;;;;;;;;;;;;350044;28;1023;-78
2021/11/15 00:37:59;;;;;;;;;;;;;;;;;;350020;28;980;-78
2021/11/15 00:38:10;;;;;;;;;;;;;;;;;;350061;28;798;-78
2021/11/15 00:38:20;;;;;;;;;;;;;;;;;;350014;28;1020;-78
2021/11/15 00:38:31;;;;;;;;;;;;;;;;;;350056;28;980;-78
2021/11/15 00:38:41;;;;;;;;;;;;;;;;;;351453;28;817;-78
2021/11/15 00:38:51;;;;;;;;;;;;;;;;;;351481;28;833;-78
2021/11/15 00:39:09;;;;;;;;;;;;;;;;;;352897;28;924;-78
2021/11/15 00:39:19;;;;;;;;;;;;;;;;;;352995;28;916;-78
2021/11/15 00:39:30;;;;;;;;;;;;;;;;;;352918;28;992;-78
2021/11/15 00:39:40;;;;;;;;;;;;;;;;;;352966;28;916;-78
2021/11/15 00:39:51;;;;;;;;;;;;;;;;;;351337;28;885;-78
2021/11/15 00:40:02;;;;;;;;;;;;;;;;;;351245;28;983;-78
2021/11/15 00:40:14;;;;;;;;;;;;;;;;;;350000;28;1067;-78
2021/11/15 00:40:25;;;;;;;;;;;;;;;;;;350087;28;785;-78
2021/11/15 00:40:35;;;;;;;;;;;;;;;;;;350094;28;857;-78
2021/11/15 00:40:46;;;;;;;;;;;;;;;;;;350104;28;848;-78
2021/11/15 00:40:57;;;;;;;;;;;;;;;;;;350067;28;818;-78
2021/11/15 00:41:07;;;;;;;;;;;;;;;;;;350000;28;836;-78
2021/11/15 00:41:18;;;;;;;;;;;;;;;;;;350065;28;999;-78
2021/11/15 00:41:28;;;;;;;;;;;;;;;;;;350104;28;845;-78
2021/11/15 00:41:39;;;;;;;;;;;;;;;;;;350069;28;927;-78
2021/11/15 00:41:49;;;;;;;;;;;;;;;;;;351190;28;956;-78
2021/11/15 00:42:00;;;;;;;;;;;;;;;;;;351337;28;818;-78
2021/11/15 00:42:37;;;;;;;;;;;;;;;;;;352947;28;900;-78
2021/11/15 00:42:48;;;;;;;;;;;;;;;;;;352977;28;916;-78
2021/11/15 00:42:58;;;;;;;;;;;;;;;;;;352945;28;944;-78
2021/11/15 00:43:09;;;;;;;;;;;;;;;;;;352986;28;928;-78
2021/11/15 00:43:19;;;;;;;;;;;;;;;;;;352912;28;932;-78
2021/11/15 00:43:55;;;;;;;;;;;;;;;;;;352958;28;1042;-78
2021/11/15 00:44:05;;;;;;;;;;;;;;;;;;352927;28;872;-78
2021/11/15 00:44:16;;;;;;;;;;;;;;;;;;352815;28;928;-78
2021/11/15 00:44:26;;;;;;;;;;;;;;;;;;352925;28;908;-78
2021/11/15 00:44:37;;;;;;;;;;;;;;;;;;352939;28;831;-78
2021/11/15 00:44:47;;;;;;;;;;;;;;;;;;352995;28;853;-78
2021/11/15 00:44:58;;;;;;;;;;;;;;;;;;352912;28;833;-78
2021/11/15 00:45:09;;;;;;;;;;;;;;;;;;352816;28;1011;-78
2021/11/15 00:45:20;;;;;;;;;;;;;;;;;;352896;28;860;-78
2021/11/15 00:45:56;;;;;;;;;;;;;;;;;;352921;28;948;-78
2021/11/15 00:46:09;;;;;;;;;;;;;;;;;;352922;28;956;-78
2021/11/15 00:46:45;;;;;;;;;;;;;;;;;;352948;28;927;-78
2021/11/15 00:46:55;;;;;;;;;;;;;;;;;;352945;28;996;-78
2021/11/15 00:47:06;;;;;;;;;;;;;;;;;;352926;28;972;-78
2021/11/15 00:47:17;;;;;;;;;;;;;;;;;;353026;28;821;-78
2021/11/15 00:47:27;;;;;;;;;;;;;;;;;;352983;28;904;-78
2021/11/15 00:47:38;;;;;;;;;;;;;;;;;;352953;28;1022;-78
2021/11/15 00:47:48;;;;;;;;;;;;;;;;;;353001;28;991;-78
2021/11/15 00:47:58;;;;;;;;;;;;;;;;;;352898;28;1003;-78
2021/11/15 00:48:09;;;;;;;;;;;;;;;;;;352952;28;1011;-78
2021/11/15 00:48:20;;;;;;;;;;;;;;;;;;352964;28;1015;-78
2021/11/15 00:48:30;;;;;;;;;;;;;;;;;;352909;28;1016;-78
2021/11/15 00:48:40;;;;;;;;;;;;;;;;;;352814;28;933;-78
2021/11/15 00:48:55;;;;;;;;;;;;;;;;;;352938;28;936;-78
2021/11/15 00:49:06;;;;;;;;;;;;;;;;;;351434;28;984;-78
2021/11/15 00:49:16;;;;;;;;;;;;;;;;;;351461;28;837;-78
2021/11/15 00:49:26;;;;;;;;;;;;;;;;;;351422;28;797;-78
2021/11/15 00:49:37;;;;;;;;;;;;;;;;;;351495;28;813;-78
2021/11/15 00:49:48;;;;;;;;;;;;;;;;;;351438;28;869;-78
2021/11/15 00:49:58;;;;;;;;;;;;;;;;;;351439;28;1028;-79
2021/11/15 00:50:10;;;;;;;;;;;;;;;;;;351433;28;1038;-79
2021/11/15 00:50:21;;;;;;;;;;;;;;;;;;349940;28;995;-78
2021/11/15 00:50:32;;;;;;;;;;;;;;;;;;349995;28;976;-78
2021/11/15 00:50:42;;;;;;;;;;;;;;;;;;350091;28;868;-78
2021/11/15 00:50:53;;;;;;;;;;;;;;;;;;349866;28;920;-78
2021/11/15 00:51:03;;;;;;;;;;;;;;;;;;350975;28;940;-78
2021/11/15 00:51:39;;;;;;;;;;;;;;;;;;351419;28;983;-78
2021/11/15 00:51:50;;;;;;;;;;;;;;;;;;351435;28;1044;-78
2021/11/15 00:52:01;;;;;;;;;;;;;;;;;;351458;28;809;-78
2021/11/15 00:52:37;;;;;;;;;;;;;;;;;;352951;28;971;-78
2021/11/15 00:52:49;;;;;;;;;;;;;;;;;;352899;28;856;-77
2021/11/15 00:53:00;;;;;;;;;;;;;;;;;;352889;28;880;-78
2021/11/15 00:53:10;;;;;;;;;;;;;;;;;;352847;28;824;-78
2021/11/15 00:53:21;;;;;;;;;;;;;;;;;;352886;28;797;-78
2021/11/15 00:53:57;;;;;;;;;;;;;;;;;;352908;28;810;-78
2021/11/15 00:54:08;;;;;;;;;;;;;;;;;;352897;28;991;-78
2021/11/15 00:54:18;;;;;;;;;;;;;;;;;;351317;28;948;-78
2021/11/15 00:54:49;;;;;;;;;;;;;;;;;;351533;28;505;-78
2021/11/15 00:54:59;;;;;;;;;;;;;;;;;;351452;28;998;-78
2021/11/15 00:55:09;;;;;;;;;;;;;;;;;;349916;28;1364;-78
2021/11/15 00:55:20;;;;;;;;;;;;;;;;;;349814;28;1269;-78
2021/11/15 00:55:32;;;;;;;;;;;;;;;;;;349914;28;877;-78
2021/11/15 00:55:42;;;;;;;;;;;;;;;;;;350043;28;884;-78
2021/11/15 00:55:53;;;;;;;;;;;;;;;;;;350027;28;819;-78
2021/11/15 00:56:04;;;;;;;;;;;;;;;;;;350006;28;975;-78
2021/11/15 00:56:14;;;;;;;;;;;;;;;;;;350606;28;904;-78
2021/11/15 00:56:24;;;;;;;;;;;;;;;;;;351382;28;989;-78
2021/11/15 00:56:38;;;;;;;;;;;;;;;;;;351472;28;825;-78
2021/11/15 00:56:48;;;;;;;;;;;;;;;;;;351392;28;1886;-78
2021/11/15 00:56:59;;;;;;;;;;;;;;;;;;351409;28;1046;-78
2021/11/15 00:57:27;;;;;;;;;;;;;;;;;;352984;28;682;-78
2021/11/15 00:57:57;;;;;;;;;;;;;;;;;;352794;28;956;-78
2021/11/15 00:58:07;;;;;;;;;;;;;;;;;;352935;28;944;-78
2021/11/15 00:58:18;;;;;;;;;;;;;;;;;;352914;28;992;-78
2021/11/15 00:58:28;;;;;;;;;;;;;;;;;;351448;28;904;-78
2021/11/15 00:58:54;;;;;;;;;;;;;;;;;;351498;28;805;-78
2021/11/15 00:59:27;;;;;;;;;;;;;;;;;;350048;28;904;-78
2021/11/15 00:59:37;;;;;;;;;;;;;;;;;;347167;28;1433;-80
2021/11/15 00:59:48;;;;;;;;;;;;;;;;;;347120;28;909;-80
2021/11/15 00:59:59;;;;;;;;;;;;;;;;;;347258;28;1075;-80
2021/11/15 01:00:11;;;;;;;;;;;;;;;;;;347267;28;912;-80
2021/11/15 01:00:24;;;;;;;;;;;;;;;;;;347395;28;1353;-80
2021/11/15 01:00:37;;;;;;;;;;;;;;;;;;348473;28;1039;-80
2021/11/15 01:01:13;;;;;;;;;;;;;;;;;;349953;28;960;-80
2021/11/15 01:01:33;;;;;;;;;;;;;;;;;;349962;28;1042;-80
2021/11/15 01:01:43;;;;;;;;;;;;;;;;;;348620;28;1003;-80
2021/11/15 01:01:54;;;;;;;;;;;;;;;;;;348599;28;1153;-80
2021/11/15 01:02:04;;;;;;;;;;;;;;;;;;348496;28;1023;-80
2021/11/15 01:02:15;;;;;;;;;;;;;;;;;;348669;28;829;-80
2021/11/15 01:02:27;;;;;;;;;;;;;;;;;;348610;28;802;-80
2021/11/15 01:02:38;;;;;;;;;;;;;;;;;;348592;28;948;-80
2021/11/15 01:02:48;;;;;;;;;;;;;;;;;;347137;28;1450;-80
2021/11/15 01:02:59;;;;;;;;;;;;;;;;;;347248;28;794;-80
2021/11/15 01:03:11;;;;;;;;;;;;;;;;;;347293;28;798;-80
2021/11/15 01:03:21;;;;;;;;;;;;;;;;;;347304;28;976;-80
2021/11/15 01:03:32;;;;;;;;;;;;;;;;;;347268;28;992;-80
2021/11/15 01:03:42;;;;;;;;;;;;;;;;;;348307;28;869;-80
2021/11/15 01:03:53;;;;;;;;;;;;;;;;;;348615;28;971;-80
2021/11/15 01:04:03;;;;;;;;;;;;;;;;;;348671;28;825;-80
2021/11/15 01:04:14;;;;;;;;;;;;;;;;;;348593;28;798;-80
2021/11/15 01:04:25;;;;;;;;;;;;;;;;;;347119;28;1785;-80
2021/11/15 01:04:36;;;;;;;;;;;;;;;;;;347246;28;967;-80
2021/11/15 01:05:15;;;;;;;;;;;;;;;;;;348602;28;936;-80
2021/11/15 01:05:27;;;;;;;;;;;;;;;;;;348542;28;873;-80
2021/11/15 01:05:38;;;;;;;;;;;;;;;;;;350798;28;1106;-80
2021/11/15 01:05:48;;;;;;;;;;;;;;;;;;351362;28;710;-80
2021/11/15 01:06:00;;;;;;;;;;;;;;;;;;350048;28;809;-80
2021/11/15 01:06:10;;;;;;;;;;;;;;;;;;350042;28;944;-80
2021/11/15 01:06:21;;;;;;;;;;;;;;;;;;350709;28;937;-80
2021/11/15 01:06:31;;;;;;;;;;;;;;;;;;351359;28;869;-78
2021/11/15 01:06:41;;;;;;;;;;;;;;;;;;351414;28;860;-78
2021/11/15 01:07:22;;;;;;;;;;;;;;;;;;351410;28;971;-78
2021/11/15 01:07:32;;;;;;;;;;;;;;;;;;351419;28;916;-78
2021/11/15 01:07:43;;;;;;;;;;;;;;;;;;351454;28;971;-78
2021/11/15 01:07:53;;;;;;;;;;;;;;;;;;351841;28;915;-78
2021/11/15 01:08:04;;;;;;;;;;;;;;;;;;352881;28;770;-78
2021/11/15 01:08:16;;;;;;;;;;;;;;;;;;352844;28;919;-78
2021/11/15 01:08:26;;;;;;;;;;;;;;;;;;352927;28;1046;-77
2021/11/15 01:08:38;;;;;;;;;;;;;;;;;;352904;28;821;-77
2021/11/15 01:08:49;;;;;;;;;;;;;;;;;;352918;28;991;-79
2021/11/15 01:08:59;;;;;;;;;;;;;;;;;;352958;28;801;-78
2021/11/15 01:09:10;;;;;;;;;;;;;;;;;;352905;28;947;-78
2021/11/15 01:09:20;;;;;;;;;;;;;;;;;;352949;28;758;-78
2021/11/15 01:09:31;;;;;;;;;;;;;;;;;;352930;28;936;-78
2021/11/15 01:09:41;;;;;;;;;;;;;;;;;;352931;28;1007;-78
2021/11/15 01:09:51;;;;;;;;;;;;;;;;;;352870;28;991;-77
2021/11/15 01:10:03;;;;;;;;;;;;;;;;;;352847;28;965;-78
2021/11/15 01:10:14;;;;;;;;;;;;;;;;;;352915;28;972;-78
2021/11/15 01:10:26;;;;;;;;;;;;;;;;;;352899;28;908;-78
2021/11/15 01:10:36;;;;;;;;;;;;;;;;;;352843;28;968;-78
2021/11/15 01:10:47;;;;;;;;;;;;;;;;;;351311;28;1000;-78
2021/11/15 01:10:58;;;;;;;;;;;;;;;;;;351283;28;818;-78
2021/11/15 01:11:08;;;;;;;;;;;;;;;;;;351442;28;1035;-78
2021/11/15 01:11:19;;;;;;;;;;;;;;;;;;351380;28;774;-79
2021/11/15 01:11:29;;;;;;;;;;;;;;;;;;351354;28;1004;-78
2021/11/15 01:11:40;;;;;;;;;;;;;;;;;;351395;28;825;-78
2021/11/15 01:11:51;;;;;;;;;;;;;;;;;;351459;28;948;-78
2021/11/15 01:12:02;;;;;;;;;;;;;;;;;;350070;28;798;-78
2021/11/15 01:12:12;;;;;;;;;;;;;;;;;;350033;28;821;-78
2021/11/15 01:12:23;;;;;;;;;;;;;;;;;;349998;28;980;-78
2021/11/15 01:12:33;;;;;;;;;;;;;;;;;;349948;28;889;-78
2021/11/15 01:12:43;;;;;;;;;;;;;;;;;;352136;28;1473;-77
2021/11/15 01:13:10;;;;;;;;;;;;;;;;;;352875;28;951;-78
2021/11/15 01:13:21;;;;;;;;;;;;;;;;;;352784;28;1048;-78
2021/11/15 01:13:32;;;;;;;;;;;;;;;;;;352874;28;980;-78
2021/11/15 01:13:42;;;;;;;;;;;;;;;;;;352849;28;971;-78
2021/11/15 01:13:53;;;;;;;;;;;;;;;;;;352819;28;880;-77
2021/11/15 01:14:03;;;;;;;;;;;;;;;;;;352786;28;980;-78
2021/11/15 01:14:14;;;;;;;;;;;;;;;;;;352815;28;976;-78
2021/11/15 01:14:24;;;;;;;;;;;;;;;;;;352842;28;798;-78
2021/11/15 01:14:34;;;;;;;;;;;;;;;;;;352883;28;916;-78
2021/11/15 01:14:45;;;;;;;;;;;;;;;;;;354351;27;908;-78
2021/11/15 01:14:55;;;;;;;;;;;;;;;;;;354269;27;877;-78
2021/11/15 01:15:06;;;;;;;;;;;;;;;;;;354336;27;968;-78
2021/11/15 01:15:19;;;;;;;;;;;;;;;;;;354258;27;1063;-78
2021/11/15 01:15:31;;;;;;;;;;;;;;;;;;354331;27;856;-78
2021/11/15 01:15:41;;;;;;;;;;;;;;;;;;352755;28;1608;-78
2021/11/15 01:15:52;;;;;;;;;;;;;;;;;;351346;28;781;-78
2021/11/15 01:16:28;;;;;;;;;;;;;;;;;;351371;28;996;-78
2021/11/15 01:16:39;;;;;;;;;;;;;;;;;;351407;28;868;-78
2021/11/15 01:16:50;;;;;;;;;;;;;;;;;;351325;28;1873;-78
2021/11/15 01:17:02;;;;;;;;;;;;;;;;;;351382;28;1035;-78
2021/11/15 01:17:12;;;;;;;;;;;;;;;;;;351376;28;999;-79
2021/11/15 01:17:23;;;;;;;;;;;;;;;;;;349944;28;933;-78
2021/11/15 01:17:33;;;;;;;;;;;;;;;;;;350116;28;880;-78
2021/11/15 01:17:44;;;;;;;;;;;;;;;;;;351493;28;872;-78
2021/11/15 01:17:55;;;;;;;;;;;;;;;;;;352837;28;852;-78
2021/11/15 01:18:06;;;;;;;;;;;;;;;;;;352801;28;932;-78
2021/11/15 01:18:48;;;;;;;;;;;;;;;;;;351355;28;1170;-78
2021/11/15 01:18:58;;;;;;;;;;;;;;;;;;351403;28;1016;-78
2021/11/15 01:19:09;;;;;;;;;;;;;;;;;;351432;28;984;-78
2021/11/15 01:19:19;;;;;;;;;;;;;;;;;;352155;28;980;-78
2021/11/15 01:19:30;;;;;;;;;;;;;;;;;;352817;28;876;-78
2021/11/15 01:20:08;;;;;;;;;;;;;;;;;;352766;28;837;-78
2021/11/15 01:20:24;;;;;;;;;;;;;;;;;;352757;28;976;-78
2021/11/15 01:20:35;;;;;;;;;;;;;;;;;;352895;28;872;-78
2021/11/15 01:20:46;;;;;;;;;;;;;;;;;;354399;27;848;-78
2021/11/15 01:20:56;;;;;;;;;;;;;;;;;;354226;27;967;-78
2021/11/15 01:21:07;;;;;;;;;;;;;;;;;;354175;27;789;-78
2021/11/15 01:21:18;;;;;;;;;;;;;;;;;;354393;27;915;-78
2021/11/15 01:21:29;;;;;;;;;;;;;;;;;;354335;27;911;-78
2021/11/15 01:21:39;;;;;;;;;;;;;;;;;;354343;27;1043;-78
2021/11/15 01:21:49;;;;;;;;;;;;;;;;;;354341;27;972;-78
2021/11/15 01:22:00;;;;;;;;;;;;;;;;;;354170;27;968;-78
2021/11/15 01:22:10;;;;;;;;;;;;;;;;;;354305;27;850;-78
2021/11/15 01:22:20;;;;;;;;;;;;;;;;;;352789;28;794;-78
2021/11/15 01:22:31;;;;;;;;;;;;;;;;;;352820;28;892;-78
2021/11/15 01:22:42;;;;;;;;;;;;;;;;;;352826;28;758;-78
2021/11/15 01:22:52;;;;;;;;;;;;;;;;;;352792;28;848;-78
2021/11/15 01:23:05;;;;;;;;;;;;;;;;;;351329;28;1509;-78
2021/11/15 01:23:15;;;;;;;;;;;;;;;;;;351454;28;822;-78
2021/11/15 01:23:26;;;;;;;;;;;;;;;;;;351305;28;988;-77
2021/11/15 01:23:37;;;;;;;;;;;;;;;;;;351410;28;905;-78
2021/11/15 01:23:50;;;;;;;;;;;;;;;;;;351391;28;1023;-78
2021/11/15 01:24:00;;;;;;;;;;;;;;;;;;351370;28;886;-78
2021/11/15 01:24:10;;;;;;;;;;;;;;;;;;351302;28;786;-78
2021/11/15 01:24:21;;;;;;;;;;;;;;;;;;352771;28;809;-79
2021/11/15 01:24:31;;;;;;;;;;;;;;;;;;352748;28;1488;-78
2021/11/15 01:24:42;;;;;;;;;;;;;;;;;;352836;28;892;-78
2021/11/15 01:24:52;;;;;;;;;;;;;;;;;;352844;28;806;-77
2021/11/15 01:25:03;;;;;;;;;;;;;;;;;;354238;27;836;-78
2021/11/15 01:25:14;;;;;;;;;;;;;;;;;;354306;27;816;-78
2021/11/15 01:25:24;;;;;;;;;;;;;;;;;;351305;28;1187;-78
2021/11/15 01:25:36;;;;;;;;;;;;;;;;;;351385;28;987;-78
2021/11/15 01:25:46;;;;;;;;;;;;;;;;;;351406;28;805;-77
2021/11/15 01:25:57;;;;;;;;;;;;;;;;;;351369;28;810;-78
2021/11/15 01:26:07;;;;;;;;;;;;;;;;;;351316;28;884;-78
2021/11/15 01:26:18;;;;;;;;;;;;;;;;;;351376;28;980;-78
2021/11/15 01:27:09;;;;;;;;;;;;;;;;;;351373;28;980;-77
2021/11/15 01:27:19;;;;;;;;;;;;;;;;;;352426;27;881;-78
2021/11/15 01:27:30;;;;;;;;;;;;;;;;;;354297;27;964;-78
2021/11/15 01:27:41;;;;;;;;;;;;;;;;;;352798;28;955;-78
2021/11/15 01:27:51;;;;;;;;;;;;;;;;;;352774;28;758;-78
2021/11/15 01:28:01;;;;;;;;;;;;;;;;;;352820;28;1054;-78
2021/11/15 01:28:12;;;;;;;;;;;;;;;;;;352761;28;959;-78
2021/11/15 01:28:25;;;;;;;;;;;;;;;;;;352858;28;781;-78
2021/11/15 01:28:36;;;;;;;;;;;;;;;;;;352669;28;1035;-78
2021/11/15 01:28:48;;;;;;;;;;;;;;;;;;352714;28;960;-78
2021/11/15 01:29:09;;;;;;;;;;;;;;;;;;352844;28;911;-78
2021/11/15 01:29:19;;;;;;;;;;;;;;;;;;352840;28;884;-78
2021/11/15 01:29:30;;;;;;;;;;;;;;;;;;352809;28;852;-78
2021/11/15 01:29:40;;;;;;;;;;;;;;;;;;354175;27;983;-78
2021/11/15 01:29:51;;;;;;;;;;;;;;;;;;354326;27;833;-78
2021/11/15 01:30:02;;;;;;;;;;;;;;;;;;354343;27;849;-78
2021/11/15 01:30:14;;;;;;;;;;;;;;;;;;354334;27;861;-78
2021/11/15 01:30:25;;;;;;;;;;;;;;;;;;354314;27;1058;-78
2021/11/15 01:30:36;;;;;;;;;;;;;;;;;;354309;27;862;-78
2021/11/15 01:30:47;;;;;;;;;;;;;;;;;;354318;27;817;-78
2021/11/15 01:31:23;;;;;;;;;;;;;;;;;;354199;27;995;-77
2021/11/15 01:31:33;;;;;;;;;;;;;;;;;;354319;27;920;-77
2021/11/15 01:31:44;;;;;;;;;;;;;;;;;;354288;27;1027;-78
2021/11/15 01:31:57;;;;;;;;;;;;;;;;;;354336;27;770;-78
2021/11/15 01:32:07;;;;;;;;;;;;;;;;;;354377;27;897;-78
2021/11/15 01:32:24;;;;;;;;;;;;;;;;;;354273;27;967;-78
2021/11/15 01:32:34;;;;;;;;;;;;;;;;;;352898;28;821;-77
2021/11/15 01:32:45;;;;;;;;;;;;;;;;;;352823;28;848;-77
2021/11/15 01:32:56;;;;;;;;;;;;;;;;;;352821;28;912;-78
2021/11/15 01:33:32;;;;;;;;;;;;;;;;;;352800;28;984;-78
2021/11/15 01:33:43;;;;;;;;;;;;;;;;;;352799;28;1019;-77
2021/11/15 01:33:53;;;;;;;;;;;;;;;;;;352766;28;888;-78
2021/11/15 01:34:03;;;;;;;;;;;;;;;;;;352674;28;1011;-79
2021/11/15 01:34:14;;;;;;;;;;;;;;;;;;352847;28;785;-78
2021/11/15 01:34:24;;;;;;;;;;;;;;;;;;352787;28;959;-78
2021/11/15 01:34:36;;;;;;;;;;;;;;;;;;354243;27;872;-78
2021/11/15 01:34:46;;;;;;;;;;;;;;;;;;354352;27;869;-78